createdAt,value
2023-08-08T00:00:00.185Z,11.1
2023-08-08T00:01:00.349Z,11.1
2023-08-08T00:02:00.370Z,11.1
2023-08-08T00:03:00.166Z,11.1
2023-08-08T00:04:00.190Z,11.1
2023-08-08T00:05:00.158Z,11.1
2023-08-08T00:06:00.288Z,11.1
2023-08-08T00:07:00.153Z,11.1
2023-08-08T00:08:00.184Z,11.1
2023-08-08T00:09:00.158Z,11.1
2023-08-08T00:10:00.196Z,11.1
2023-08-08T00:11:00.163Z,11.1
2023-08-08T00:12:00.301Z,11.1
2023-08-08T00:13:00.149Z,11.1
2023-08-08T00:14:00.157Z,11.1
2023-08-08T00:15:00.204Z,11.2
2023-08-08T00:16:00.213Z,11.2
2023-08-08T00:17:00.184Z,11.2
2023-08-08T00:18:02.568Z,11.2
2023-08-08T00:19:00.165Z,11.2
2023-08-08T00:20:00.210Z,11.2
2023-08-08T00:21:00.163Z,11.2
2023-08-08T00:22:00.505Z,11.2
2023-08-08T00:23:00.166Z,11.2
2023-08-08T00:24:00.165Z,11.2
2023-08-08T00:25:00.168Z,11.2
2023-08-08T00:26:00.163Z,11.2
2023-08-08T00:27:00.161Z,11.2
2023-08-08T00:28:00.178Z,11.2
2023-08-08T00:29:00.175Z,11.2
2023-08-08T00:30:00.226Z,11.2
2023-08-08T00:31:00.196Z,11.2
2023-08-08T00:32:00.514Z,11.2
2023-08-08T00:33:00.213Z,11.2
2023-08-08T00:34:00.182Z,11.2
2023-08-08T00:35:00.189Z,11.2
2023-08-08T00:36:00.192Z,11.2
2023-08-08T00:37:00.193Z,11.2
2023-08-08T00:38:00.188Z,11.2
2023-08-08T00:39:00.193Z,11.2
2023-08-08T00:40:00.215Z,11.2
2023-08-08T00:41:00.196Z,11.2
2023-08-08T00:42:00.487Z,11.2
2023-08-08T00:43:00.185Z,11.2
2023-08-08T00:44:00.190Z,11.2
2023-08-08T00:45:00.191Z,11.2
2023-08-08T00:46:00.188Z,11.2
2023-08-08T00:47:00.305Z,11.2
2023-08-08T00:48:00.227Z,11.2
2023-08-08T00:49:00.204Z,11.2
2023-08-08T00:50:00.199Z,11.2
2023-08-08T00:51:00.197Z,11.2
2023-08-08T00:52:00.473Z,11.2
2023-08-08T00:53:00.199Z,11.2
2023-08-08T00:54:00.192Z,11.2
2023-08-08T00:55:00.269Z,11.2
2023-08-08T00:56:00.217Z,11.2
2023-08-08T00:57:00.194Z,11.1
2023-08-08T00:58:00.217Z,11.1
2023-08-08T00:59:00.212Z,11.1
2023-08-08T01:00:00.281Z,11.1
2023-08-08T01:01:00.275Z,11.1
2023-08-08T01:02:00.688Z,11.1
2023-08-08T01:03:00.261Z,11.1
2023-08-08T01:04:00.200Z,11
2023-08-08T01:05:00.201Z,11
2023-08-08T01:06:00.240Z,11.1
2023-08-08T01:07:00.209Z,11.1
2023-08-08T01:08:00.209Z,11
2023-08-08T01:09:00.245Z,11
2023-08-08T01:10:00.287Z,11
2023-08-08T01:11:00.233Z,11
2023-08-08T01:12:00.405Z,11
2023-08-08T01:13:00.248Z,11
2023-08-08T01:14:00.214Z,10.9
2023-08-08T01:15:00.250Z,10.9
2023-08-08T01:16:00.247Z,10.9
2023-08-08T01:17:00.344Z,10.8
2023-08-08T01:18:00.261Z,10.8
2023-08-08T01:19:00.232Z,10.8
2023-08-08T01:20:00.257Z,10.7
2023-08-08T01:21:00.254Z,10.7
2023-08-08T01:22:00.774Z,10.6
2023-08-08T01:23:00.249Z,10.6
2023-08-08T01:24:00.226Z,10.6
2023-08-08T01:25:00.222Z,10.5
2023-08-08T01:26:00.222Z,10.5
2023-08-08T01:27:00.427Z,10.4
2023-08-08T01:28:00.227Z,10.4
2023-08-08T01:29:00.244Z,10.4
2023-08-08T01:30:00.236Z,10.3
2023-08-08T01:31:00.246Z,10.3
2023-08-08T01:32:00.453Z,10.3
2023-08-08T01:33:00.251Z,10.2
2023-08-08T01:34:00.261Z,10.2
2023-08-08T01:35:00.245Z,10.2
2023-08-08T01:36:00.267Z,10.2
2023-08-08T01:37:00.239Z,10.2
2023-08-08T01:38:00.985Z,10.2
2023-08-08T01:39:00.243Z,10.2
2023-08-08T01:40:00.362Z,10.2
2023-08-08T01:41:00.237Z,10.2
2023-08-08T01:42:00.640Z,10.2
2023-08-08T01:43:00.244Z,10.2
2023-08-08T01:44:00.408Z,10.2
2023-08-08T01:45:00.253Z,10.2
2023-08-08T01:46:00.360Z,10.2
2023-08-08T01:47:00.265Z,10.2
2023-08-08T01:48:00.317Z,10.2
2023-08-08T01:49:01.349Z,10.2
2023-08-08T01:50:00.260Z,10.2
2023-08-08T01:51:00.249Z,10.1
2023-08-08T01:52:00.577Z,10.1
2023-08-08T01:53:00.251Z,10.1
2023-08-08T01:54:00.255Z,10.1
2023-08-08T01:55:00.249Z,10.1
2023-08-08T01:56:00.259Z,10.1
2023-08-08T01:57:00.257Z,10
2023-08-08T01:58:00.260Z,10
2023-08-08T01:59:00.262Z,10
2023-08-08T02:00:00.313Z,10
2023-08-08T02:01:00.588Z,10
2023-08-08T02:02:00.984Z,10
2023-08-08T02:03:00.741Z,10
2023-08-08T02:04:00.607Z,10
2023-08-08T02:05:00.691Z,10
2023-08-08T02:06:00.589Z,10.1
2023-08-08T02:07:00.592Z,10
2023-08-08T02:08:00.605Z,10
2023-08-08T02:09:00.593Z,10
2023-08-08T02:10:00.602Z,10
2023-08-08T02:11:00.615Z,9.9
2023-08-08T02:12:01.088Z,9.9
2023-08-08T02:13:00.609Z,9.9
2023-08-08T02:14:00.597Z,9.9
2023-08-08T02:15:00.613Z,9.9
2023-08-08T02:16:00.611Z,9.8
2023-08-08T02:17:00.604Z,9.8
2023-08-08T02:18:00.719Z,9.8
2023-08-08T02:19:00.610Z,9.8
2023-08-08T02:20:00.623Z,9.8
2023-08-08T02:21:00.629Z,9.8
2023-08-08T02:22:01.044Z,9.8
2023-08-08T02:23:00.606Z,9.7
2023-08-08T02:24:00.640Z,9.7
2023-08-08T02:25:00.605Z,9.7
2023-08-08T02:26:00.613Z,9.6
2023-08-08T02:27:00.624Z,9.6
2023-08-08T02:28:00.606Z,9.7
2023-08-08T02:29:00.614Z,9.7
2023-08-08T02:30:04.796Z,9.7
2023-08-08T02:31:00.604Z,9.6
2023-08-08T02:32:01.076Z,9.6
2023-08-08T02:33:00.631Z,9.6
2023-08-08T02:34:00.609Z,9.6
2023-08-08T02:35:00.647Z,9.6
2023-08-08T02:36:00.608Z,9.5
2023-08-08T02:37:00.614Z,9.5
2023-08-08T02:38:00.617Z,9.5
2023-08-08T02:39:00.617Z,9.5
2023-08-08T02:40:00.627Z,9.5
2023-08-08T02:41:00.620Z,9.5
2023-08-08T02:42:01.096Z,9.6
2023-08-08T02:43:00.614Z,9.6
2023-08-08T02:44:01.377Z,9.6
2023-08-08T02:45:00.624Z,9.6
2023-08-08T02:46:00.632Z,9.6
2023-08-08T02:47:00.631Z,9.6
2023-08-08T02:48:00.709Z,9.5
2023-08-08T02:49:00.647Z,9.5
2023-08-08T02:50:00.630Z,9.5
2023-08-08T02:51:00.630Z,9.5
2023-08-08T02:52:00.938Z,9.5
2023-08-08T02:53:00.635Z,9.5
2023-08-08T02:54:00.630Z,9.5
2023-08-08T02:55:00.633Z,9.6
2023-08-08T02:56:00.630Z,9.5
2023-08-08T02:57:00.931Z,9.5
2023-08-08T02:58:00.636Z,9.4
2023-08-08T02:59:00.636Z,9.4
2023-08-08T03:00:00.659Z,9.4
2023-08-08T03:01:00.672Z,9.3
2023-08-08T03:02:00.873Z,9.3
2023-08-08T03:03:00.753Z,9.2
2023-08-08T03:04:00.680Z,9.2
2023-08-08T03:05:00.653Z,9.2
2023-08-08T03:06:00.645Z,9.1
2023-08-08T03:07:00.647Z,9.1
2023-08-08T03:08:00.655Z,9.1
2023-08-08T03:09:00.653Z,9.1
2023-08-08T03:10:00.659Z,9.1
2023-08-08T03:11:00.654Z,9.1
2023-08-08T03:12:01.062Z,9.2
2023-08-08T03:13:00.651Z,9.2
2023-08-08T03:14:00.733Z,9.2
2023-08-08T03:15:00.663Z,9.2
2023-08-08T03:16:00.717Z,9.1
2023-08-08T03:17:01.711Z,9.2
2023-08-08T03:18:00.673Z,9.1
2023-08-08T03:19:01.270Z,9.1
2023-08-08T03:20:00.696Z,9.2
2023-08-08T03:21:00.679Z,9.2
2023-08-08T03:22:01.136Z,9.1
2023-08-08T03:23:00.678Z,9.1
2023-08-08T03:24:00.673Z,9.1
2023-08-08T03:25:00.674Z,9.1
2023-08-08T03:26:00.710Z,9.1
2023-08-08T03:27:00.664Z,9.1
2023-08-08T03:28:00.686Z,9.1
2023-08-08T03:29:00.665Z,9.1
2023-08-08T03:30:00.714Z,9
2023-08-08T03:31:00.673Z,9
2023-08-08T03:32:00.679Z,8.9
2023-08-08T03:33:00.753Z,8.9
2023-08-08T03:34:00.713Z,8.9
2023-08-08T03:35:00.918Z,8.9
2023-08-08T03:36:00.690Z,8.9
2023-08-08T03:37:00.680Z,8.9
2023-08-08T03:38:00.680Z,8.8
2023-08-08T03:39:00.702Z,8.8
2023-08-08T03:40:00.692Z,8.8
2023-08-08T03:41:00.688Z,8.8
2023-08-08T03:42:01.295Z,8.8
2023-08-08T03:43:00.687Z,8.8
2023-08-08T03:44:00.702Z,8.8
2023-08-08T03:45:00.713Z,8.8
2023-08-08T03:46:00.691Z,8.8
2023-08-08T03:47:10.006Z,8.8
2023-08-08T03:48:00.725Z,8.8
2023-08-08T03:49:00.722Z,8.8
2023-08-08T03:50:00.720Z,8.9
2023-08-08T03:51:00.689Z,8.9
2023-08-08T03:52:00.693Z,8.9
2023-08-08T03:53:00.940Z,8.9
2023-08-08T03:54:00.718Z,8.9
2023-08-08T03:55:00.713Z,8.9
2023-08-08T03:56:00.709Z,8.9
2023-08-08T03:57:00.721Z,8.9
2023-08-08T03:58:00.697Z,8.9
2023-08-08T03:59:00.699Z,8.9
2023-08-08T04:00:00.718Z,8.9
2023-08-08T04:01:00.767Z,8.9
2023-08-08T04:02:01.053Z,8.9
2023-08-08T04:03:00.847Z,8.9
2023-08-08T04:04:00.707Z,8.9
2023-08-08T04:05:00.707Z,8.9
2023-08-08T04:06:00.711Z,8.9
2023-08-08T04:07:00.722Z,8.9
2023-08-08T04:08:00.715Z,8.9
2023-08-08T04:09:02.216Z,9
2023-08-08T04:10:00.714Z,8.9
2023-08-08T04:11:00.719Z,9
2023-08-08T04:12:01.197Z,9
2023-08-08T04:13:00.716Z,9
2023-08-08T04:14:00.719Z,9
2023-08-08T04:15:00.731Z,9.1
2023-08-08T04:16:00.724Z,9.1
2023-08-08T04:17:00.765Z,9.1
2023-08-08T04:18:00.823Z,9.1
2023-08-08T04:19:00.721Z,9.1
2023-08-08T04:20:00.836Z,9.1
2023-08-08T04:21:00.738Z,9.1
2023-08-08T04:22:00.951Z,9.1
2023-08-08T04:23:00.742Z,9.1
2023-08-08T04:24:00.758Z,9.1
2023-08-08T04:25:00.731Z,9.1
2023-08-08T04:26:00.725Z,9.1
2023-08-08T04:27:00.739Z,9.1
2023-08-08T04:28:00.843Z,9.1
2023-08-08T04:29:00.729Z,9.1
2023-08-08T04:30:00.765Z,9.1
2023-08-08T04:31:01.344Z,9.1
2023-08-08T04:32:01.094Z,9.2
2023-08-08T04:33:00.805Z,9.2
2023-08-08T04:34:01.695Z,9.2
2023-08-08T04:35:00.734Z,9.2
2023-08-08T04:36:00.737Z,9.2
2023-08-08T04:37:00.745Z,9.2
2023-08-08T04:38:00.743Z,9.2
2023-08-08T04:39:00.741Z,9.2
2023-08-08T04:40:00.832Z,9.2
2023-08-08T04:41:00.742Z,9.2
2023-08-08T04:42:01.529Z,9.2
2023-08-08T04:43:00.757Z,9.2
2023-08-08T04:44:00.766Z,9.2
2023-08-08T04:45:00.757Z,9.2
2023-08-08T04:46:00.757Z,9.3
2023-08-08T04:47:00.748Z,9.3
2023-08-08T04:48:00.794Z,9.3
2023-08-08T04:49:00.750Z,9.3
2023-08-08T04:50:00.747Z,9.4
2023-08-08T04:51:00.776Z,9.4
2023-08-08T04:52:01.019Z,9.4
2023-08-08T04:53:01.165Z,9.4
2023-08-08T04:54:00.753Z,9.4
2023-08-08T04:55:00.965Z,9.4
2023-08-08T04:56:00.760Z,9.4
2023-08-08T04:57:00.780Z,9.4
2023-08-08T04:58:00.758Z,9.5
2023-08-08T04:59:00.771Z,9.5
2023-08-08T05:00:00.792Z,9.6
2023-08-08T05:01:00.799Z,9.6
2023-08-08T05:02:01.160Z,9.6
2023-08-08T05:03:00.827Z,9.6
2023-08-08T05:04:00.800Z,9.7
2023-08-08T05:05:00.770Z,9.7
2023-08-08T05:06:00.796Z,9.8
2023-08-08T05:07:00.769Z,9.8
2023-08-08T05:08:00.769Z,9.8
2023-08-08T05:09:00.776Z,9.8
2023-08-08T05:10:00.788Z,9.9
2023-08-08T05:11:00.769Z,9.9
2023-08-08T05:12:01.043Z,9.9
2023-08-08T05:13:00.843Z,9.9
2023-08-08T05:14:00.781Z,10
2023-08-08T05:15:00.774Z,10.1
2023-08-08T05:16:00.836Z,10.1
2023-08-08T05:17:00.780Z,10.1
2023-08-08T05:18:00.878Z,10.2
2023-08-08T05:19:00.792Z,10.2
2023-08-08T05:20:00.783Z,10.2
2023-08-08T05:21:00.801Z,10.3
2023-08-08T05:22:01.093Z,10.3
2023-08-08T05:23:00.160Z,10.4
2023-08-08T05:24:00.173Z,10.4
2023-08-08T05:25:00.218Z,10.4
2023-08-08T05:26:00.172Z,10.4
2023-08-08T05:27:00.168Z,10.5
2023-08-08T05:28:00.175Z,10.5
2023-08-08T05:29:00.195Z,10.5
2023-08-08T05:30:00.191Z,10.6
2023-08-08T05:31:00.386Z,10.6
2023-08-08T05:32:00.410Z,10.6
2023-08-08T05:33:00.904Z,10.7
2023-08-08T05:34:00.178Z,10.7
2023-08-08T05:35:00.213Z,10.7
2023-08-08T05:36:00.234Z,10.8
2023-08-08T05:37:14.558Z,10.8
2023-08-08T05:38:00.182Z,10.8
2023-08-08T05:39:00.239Z,10.9
2023-08-08T05:40:00.242Z,10.9
2023-08-08T05:41:00.204Z,10.9
2023-08-08T05:42:00.209Z,10.9
2023-08-08T05:43:00.188Z,11
2023-08-08T05:44:00.182Z,11.1
2023-08-08T05:45:00.200Z,11.1
2023-08-08T05:46:00.309Z,11.1
2023-08-08T05:47:00.192Z,11.1
2023-08-08T05:48:00.231Z,11.2
2023-08-08T05:49:00.187Z,11.2
2023-08-08T05:50:00.325Z,11.2
2023-08-08T05:51:00.244Z,11.3
2023-08-08T05:52:00.542Z,11.4
2023-08-08T05:53:00.217Z,11.4
2023-08-08T05:54:02.096Z,11.4
2023-08-08T05:55:00.279Z,11.5
2023-08-08T05:56:00.240Z,11.5
2023-08-08T05:57:00.203Z,11.6
2023-08-08T05:58:00.216Z,11.6
2023-08-08T05:59:00.208Z,11.6
2023-08-08T06:00:02.964Z,11.6
2023-08-08T06:01:00.592Z,11.7
2023-08-08T06:02:00.888Z,11.8
2023-08-08T06:03:00.239Z,11.8
2023-08-08T06:04:00.248Z,11.8
2023-08-08T06:05:00.222Z,11.9
2023-08-08T06:06:00.211Z,11.9
2023-08-08T06:07:00.207Z,11.9
2023-08-08T06:08:00.219Z,12
2023-08-08T06:09:00.227Z,12.1
2023-08-08T06:10:00.314Z,12.1
2023-08-08T06:11:00.264Z,12.1
2023-08-08T06:12:00.466Z,12.2
2023-08-08T06:13:00.215Z,12.2
2023-08-08T06:14:00.225Z,12.3
2023-08-08T06:15:00.275Z,12.4
2023-08-08T06:16:00.232Z,12.4
2023-08-08T06:17:00.216Z,12.5
2023-08-08T06:18:00.422Z,12.6
2023-08-08T06:19:00.222Z,12.6
2023-08-08T06:20:00.343Z,12.7
2023-08-08T06:21:00.225Z,12.8
2023-08-08T06:22:00.599Z,12.8
2023-08-08T06:23:00.241Z,12.9
2023-08-08T06:24:00.222Z,12.9
2023-08-08T06:25:00.251Z,12.9
2023-08-08T06:26:00.225Z,13.1
2023-08-08T06:27:00.224Z,13.1
2023-08-08T06:28:00.240Z,13.2
2023-08-08T06:29:00.244Z,13.2
2023-08-08T06:30:03.745Z,13.2
2023-08-08T06:31:00.272Z,13.3
2023-08-08T06:32:00.844Z,13.4
2023-08-08T06:33:00.298Z,13.4
2023-08-08T06:34:00.253Z,13.4
2023-08-08T06:35:00.230Z,13.5
2023-08-08T06:36:00.245Z,13.6
2023-08-08T06:37:00.253Z,13.6
2023-08-08T06:38:02.250Z,13.6
2023-08-08T06:39:00.240Z,13.7
2023-08-08T06:40:00.236Z,13.8
2023-08-08T06:41:00.253Z,13.8
2023-08-08T06:42:00.490Z,13.9
2023-08-08T06:43:00.247Z,13.9
2023-08-08T06:44:00.248Z,13.9
2023-08-08T06:45:00.998Z,14.1
2023-08-08T06:46:00.295Z,14.1
2023-08-08T06:47:00.247Z,14.1
2023-08-08T06:48:00.314Z,14.2
2023-08-08T06:49:00.272Z,14.2
2023-08-08T06:50:00.288Z,14.2
2023-08-08T06:51:00.248Z,14.3
2023-08-08T06:52:00.412Z,14.4
2023-08-08T06:53:00.249Z,14.4
2023-08-08T06:54:00.250Z,14.4
2023-08-08T06:55:00.268Z,14.5
2023-08-08T06:56:00.254Z,14.5
2023-08-08T06:57:01.413Z,14.6
2023-08-08T06:58:00.258Z,14.6
2023-08-08T06:59:00.261Z,14.6
2023-08-08T07:00:00.262Z,14.6
2023-08-08T07:01:00.279Z,14.7
2023-08-08T07:02:00.268Z,14.7
2023-08-08T07:03:02.301Z,14.8
2023-08-08T07:04:00.268Z,14.8
2023-08-08T07:05:00.266Z,14.8
2023-08-08T07:06:00.266Z,14.9
2023-08-08T07:07:00.266Z,14.9
2023-08-08T07:08:00.277Z,14.9
2023-08-08T07:09:00.269Z,15
2023-08-08T07:10:00.270Z,15.1
2023-08-08T07:11:00.286Z,15.1
2023-08-08T07:12:00.521Z,15.1
2023-08-08T07:13:00.280Z,15.2
2023-08-08T07:14:00.291Z,15.2
2023-08-08T07:15:00.315Z,15.2
2023-08-08T07:16:00.324Z,15.3
2023-08-08T07:17:00.289Z,15.4
2023-08-08T07:18:00.290Z,15.4
2023-08-08T07:19:00.310Z,15.4
2023-08-08T07:20:00.294Z,15.4
2023-08-08T07:21:00.286Z,15.4
2023-08-08T07:22:00.676Z,15.5
2023-08-08T07:23:00.289Z,15.5
2023-08-08T07:24:01.036Z,15.6
2023-08-08T07:25:00.289Z,15.6
2023-08-08T07:26:00.292Z,15.6
2023-08-08T07:27:00.336Z,15.7
2023-08-08T07:28:00.286Z,15.8
2023-08-08T07:29:00.294Z,15.8
2023-08-08T07:30:00.336Z,15.8
2023-08-08T07:31:00.329Z,15.8
2023-08-08T07:32:00.582Z,15.9
2023-08-08T07:33:00.399Z,15.9
2023-08-08T07:34:00.321Z,15.9
2023-08-08T07:35:00.298Z,15.9
2023-08-08T07:36:01.265Z,15.9
2023-08-08T07:37:00.309Z,16
2023-08-08T07:38:00.305Z,16
2023-08-08T07:39:00.316Z,16.1
2023-08-08T07:40:00.311Z,16.1
2023-08-08T07:41:00.297Z,16.1
2023-08-08T07:42:00.622Z,16.1
2023-08-08T07:43:00.311Z,16.2
2023-08-08T07:44:00.313Z,16.2
2023-08-08T07:45:00.308Z,16.2
2023-08-08T07:46:00.516Z,16.2
2023-08-08T07:47:00.326Z,16.3
2023-08-08T07:48:00.363Z,16.4
2023-08-08T07:49:00.320Z,16.4
2023-08-08T07:50:00.322Z,16.5
2023-08-08T07:51:00.310Z,16.6
2023-08-08T07:52:00.525Z,16.6
2023-08-08T07:53:00.322Z,16.6
2023-08-08T07:54:00.329Z,16.6
2023-08-08T07:55:00.315Z,16.7
2023-08-08T07:56:00.317Z,16.8
2023-08-08T07:57:00.483Z,16.8
2023-08-08T07:58:00.404Z,16.8
2023-08-08T07:59:01.362Z,16.9
2023-08-08T08:00:00.555Z,16.9
2023-08-08T08:01:00.357Z,16.9
2023-08-08T08:02:00.380Z,16.9
2023-08-08T08:03:00.406Z,17.1
2023-08-08T08:06:01.853Z,17.2
2023-08-08T08:07:00.779Z,17.3
2023-08-08T08:08:00.812Z,17.4
2023-08-08T08:09:00.771Z,17.5
2023-08-08T08:10:00.782Z,17.6
2023-08-08T08:11:00.780Z,17.7
2023-08-08T08:12:01.308Z,17.7
2023-08-08T08:14:02.458Z,17.9
2023-08-08T08:15:00.678Z,17.9
2023-08-08T08:16:00.696Z,17.9
2023-08-08T08:17:00.744Z,18.1
2023-08-08T08:18:00.707Z,18.1
2023-08-08T08:19:01.632Z,18.2
2023-08-08T08:20:00.690Z,18.2
2023-08-08T08:21:00.675Z,18.2
2023-08-08T08:22:00.992Z,18.4
2023-08-08T08:23:00.729Z,18.4
2023-08-08T08:24:01.066Z,18.5
2023-08-08T08:25:00.688Z,18.6
2023-08-08T08:26:00.745Z,18.6
2023-08-08T08:27:00.684Z,18.6
2023-08-08T08:28:00.672Z,18.8
2023-08-08T08:29:00.692Z,18.8
2023-08-08T08:30:00.718Z,18.9
2023-08-08T08:31:00.691Z,18.9
2023-08-08T08:32:00.937Z,19
2023-08-08T08:33:00.753Z,19.1
2023-08-08T08:34:00.678Z,19.2
2023-08-08T08:35:00.702Z,19.2
2023-08-08T08:36:00.739Z,19.3
2023-08-08T08:37:00.739Z,19.4
2023-08-08T08:38:00.703Z,19.4
2023-08-08T08:39:00.695Z,19.6
2023-08-08T08:40:02.409Z,19.6
2023-08-08T08:41:00.711Z,19.6
2023-08-08T08:42:00.692Z,19.7
2023-08-08T08:43:00.690Z,19.8
2023-08-08T08:44:02.201Z,19.9
2023-08-08T08:45:00.717Z,19.9
2023-08-08T08:46:00.700Z,20.1
2023-08-08T08:47:00.697Z,20.1
2023-08-08T08:48:00.694Z,20.2
2023-08-08T08:49:00.744Z,20.3
2023-08-08T08:50:00.714Z,20.4
2023-08-08T08:51:00.693Z,20.4
2023-08-08T08:52:00.870Z,20.5
2023-08-08T08:53:00.724Z,20.6
2023-08-08T08:54:00.701Z,20.6
2023-08-08T08:55:00.710Z,20.4
2023-08-08T08:56:00.754Z,20.4
2023-08-08T08:57:00.755Z,20.3
2023-08-08T08:58:00.731Z,20.3
2023-08-08T08:59:00.780Z,20.3
2023-08-08T09:00:00.821Z,20.3
2023-08-08T09:01:00.740Z,20.3
2023-08-08T09:02:01.088Z,20.3
2023-08-08T09:03:00.818Z,20.3
2023-08-08T09:04:00.785Z,20.2
2023-08-08T09:05:00.729Z,20.2
2023-08-08T09:06:01.270Z,20.2
2023-08-08T09:07:00.722Z,20.1
2023-08-08T09:08:00.726Z,20.1
2023-08-08T09:09:07.254Z,20.1
2023-08-08T09:10:00.796Z,20.1
2023-08-08T09:11:00.724Z,20.1
2023-08-08T09:12:01.149Z,20.2
2023-08-08T09:13:00.742Z,20.2
2023-08-08T09:14:00.729Z,20.2
2023-08-08T09:15:00.739Z,20.4
2023-08-08T09:16:00.835Z,20.4
2023-08-08T09:17:00.782Z,20.6
2023-08-08T09:18:00.793Z,20.6
2023-08-08T09:19:00.750Z,20.8
2023-08-08T09:20:00.724Z,20.9
2023-08-08T09:21:00.743Z,21
2023-08-08T09:22:01.040Z,21.2
2023-08-08T09:23:00.736Z,21.3
2023-08-08T09:24:00.744Z,21.4
2023-08-08T09:25:00.774Z,21.6
2023-08-08T09:26:00.756Z,21.8
2023-08-08T09:27:00.753Z,21.8
2023-08-08T09:28:00.755Z,21.9
2023-08-08T09:29:00.738Z,21.9
2023-08-08T09:30:00.762Z,22
2023-08-08T09:31:00.762Z,22.1
2023-08-08T09:32:00.959Z,22.1
2023-08-08T09:33:00.775Z,22.1
2023-08-08T09:34:00.749Z,21.9
2023-08-08T09:35:00.775Z,21.9
2023-08-08T09:36:00.784Z,21.9
2023-08-08T09:37:00.771Z,21.9
2023-08-08T09:38:00.755Z,22.1
2023-08-08T09:39:00.753Z,22.1
2023-08-08T09:40:00.799Z,22.2
2023-08-08T09:41:00.756Z,22.2
2023-08-08T09:42:01.038Z,22.2
2023-08-08T09:43:00.761Z,22.1
2023-08-08T09:44:01.029Z,22.1
2023-08-08T09:45:00.760Z,22
2023-08-08T09:46:00.825Z,21.9
2023-08-08T09:47:00.776Z,21.8
2023-08-08T09:48:00.765Z,21.7
2023-08-08T09:49:00.782Z,21.7
2023-08-08T09:50:00.787Z,21.7
2023-08-08T09:51:00.758Z,21.6
2023-08-08T09:52:00.959Z,21.6
2023-08-08T09:53:00.762Z,21.5
2023-08-08T09:54:00.759Z,21.5
2023-08-08T09:55:00.796Z,21.6
2023-08-08T09:56:00.773Z,21.7
2023-08-08T09:57:00.771Z,21.8
2023-08-08T09:58:00.769Z,21.8
2023-08-08T09:59:00.774Z,21.8
2023-08-08T10:00:00.803Z,21.8
2023-08-08T10:01:00.778Z,21.8
2023-08-08T10:02:01.222Z,21.8
2023-08-08T10:03:00.837Z,21.7
2023-08-08T10:04:00.786Z,21.7
2023-08-08T10:05:00.820Z,21.6
2023-08-08T10:06:00.784Z,21.6
2023-08-08T10:07:00.783Z,21.7
2023-08-08T10:08:00.794Z,21.8
2023-08-08T10:09:01.334Z,21.8
2023-08-08T10:10:03.303Z,21.9
2023-08-08T10:11:00.796Z,21.9
2023-08-08T10:12:01.160Z,22
2023-08-08T10:13:00.779Z,21.9
2023-08-08T10:14:01.177Z,21.9
2023-08-08T10:15:00.802Z,21.8
2023-08-08T10:16:00.827Z,21.6
2023-08-08T10:17:00.789Z,21.7
2023-08-08T10:18:02.353Z,21.8
2023-08-08T10:19:00.792Z,21.8
2023-08-08T10:20:00.843Z,21.9
2023-08-08T10:21:53.509Z,21.9
2023-08-08T10:22:01.059Z,22.2
2023-08-08T10:23:00.826Z,22.2
2023-08-08T10:24:00.826Z,22.3
2023-08-08T10:25:00.836Z,22.4
2023-08-08T10:26:03.740Z,22.4
2023-08-08T10:27:00.805Z,22.4
2023-08-08T10:28:04.217Z,22.4
2023-08-08T10:29:00.814Z,22.5
2023-08-08T10:30:00.818Z,22.6
2023-08-08T10:31:00.813Z,22.8
2023-08-08T10:32:01.069Z,22.9
2023-08-08T10:33:00.890Z,23
2023-08-08T10:34:00.803Z,23
2023-08-08T10:35:01.131Z,23
2023-08-08T10:36:00.838Z,22.9
2023-08-08T10:37:00.837Z,22.9
2023-08-08T10:38:00.834Z,22.9
2023-08-08T10:39:00.825Z,22.9
2023-08-08T10:40:00.850Z,22.9
2023-08-08T10:41:00.862Z,23
2023-08-08T10:42:01.211Z,23.1
2023-08-08T10:43:00.820Z,22.9
2023-08-08T10:44:00.866Z,22.9
2023-08-08T10:45:00.893Z,22.8
2023-08-08T10:46:12.781Z,22.8
2023-08-08T10:47:00.830Z,22.7
2023-08-08T10:48:01.042Z,22.7
2023-08-08T10:49:00.869Z,22.7
2023-08-08T10:50:00.842Z,22.7
2023-08-08T10:51:00.828Z,22.8
2023-08-08T10:52:01.183Z,22.8
2023-08-08T10:53:00.894Z,22.7
2023-08-08T10:54:00.840Z,22.7
2023-08-08T10:55:00.851Z,22.6
2023-08-08T10:56:00.832Z,22.6
2023-08-08T10:57:00.837Z,22.6
2023-08-08T10:58:00.839Z,22.6
2023-08-08T10:59:00.829Z,22.5
2023-08-08T11:00:00.910Z,22.6
2023-08-08T11:01:00.884Z,22.8
2023-08-08T11:02:01.031Z,22.7
2023-08-08T11:03:00.853Z,22.6
2023-08-08T11:04:00.868Z,22.8
2023-08-08T11:05:02.653Z,22.9
2023-08-08T11:06:00.855Z,23
2023-08-08T11:07:00.870Z,23
2023-08-08T11:08:00.856Z,22.9
2023-08-08T11:09:00.856Z,22.9
2023-08-08T11:10:00.865Z,23.1
2023-08-08T11:11:00.868Z,23.2
2023-08-08T11:12:01.184Z,23.3
2023-08-08T11:13:00.844Z,23.4
2023-08-08T11:14:00.850Z,23.4
2023-08-08T11:15:00.876Z,23.5
2023-08-08T11:16:00.890Z,23.6
2023-08-08T11:17:00.854Z,23.5
2023-08-08T11:18:00.900Z,23.5
2023-08-08T11:19:00.861Z,23.5
2023-08-08T11:20:00.877Z,23.6
2023-08-08T11:22:01.000Z,23.8
2023-08-08T11:23:00.840Z,23.9
2023-08-08T11:24:00.816Z,24.1
2023-08-08T11:25:00.971Z,24.2
2023-08-08T11:27:00.720Z,24.2
2023-08-08T11:28:00.693Z,24.2
2023-08-08T11:29:00.657Z,24.2
2023-08-08T11:30:00.690Z,24.1
2023-08-08T11:31:00.663Z,24
2023-08-08T11:32:00.900Z,23.9
2023-08-08T11:34:00.508Z,23.7
2023-08-08T11:35:00.490Z,23.7
2023-08-08T11:36:00.467Z,23.6
2023-08-08T11:37:00.461Z,23.6
2023-08-08T11:38:00.484Z,23.4
2023-08-08T11:39:00.438Z,23.4
2023-08-08T11:40:00.459Z,23.3
2023-08-08T11:41:00.451Z,23.3
2023-08-08T11:42:00.468Z,23.4
2023-08-08T11:43:00.480Z,23.5
2023-08-08T11:44:00.444Z,23.5
2023-08-08T11:45:00.506Z,23.5
2023-08-08T11:46:00.459Z,23.6
2023-08-08T11:47:00.502Z,23.7
2023-08-08T11:48:00.553Z,23.6
2023-08-08T11:49:00.461Z,23.4
2023-08-08T11:50:00.516Z,23.3
2023-08-08T11:51:00.481Z,23.2
2023-08-08T11:52:00.668Z,23.1
2023-08-08T11:53:00.475Z,23.1
2023-08-08T11:54:00.471Z,22.9
2023-08-08T11:55:00.478Z,22.8
2023-08-08T11:56:00.469Z,22.8
2023-08-08T11:57:00.486Z,22.8
2023-08-08T11:58:00.918Z,22.7
2023-08-08T11:59:00.505Z,22.6
2023-08-08T12:00:00.540Z,22.6
2023-08-08T12:01:00.585Z,22.4
2023-08-08T12:02:00.737Z,22.4
2023-08-08T12:03:00.529Z,22.3
2023-08-08T12:04:00.536Z,22.3
2023-08-08T12:05:00.702Z,22.3
2023-08-08T12:06:00.485Z,22.3
2023-08-08T12:07:01.076Z,22.3
2023-08-08T12:08:00.481Z,22.2
2023-08-08T12:09:00.506Z,22.2
2023-08-08T12:10:00.486Z,22.2
2023-08-08T12:11:00.483Z,22.1
2023-08-08T12:12:00.667Z,22.1
2023-08-08T12:13:01.008Z,22.1
2023-08-08T12:14:00.588Z,22.1
2023-08-08T12:15:08.304Z,22.1
2023-08-08T12:17:01.030Z,22.1
2023-08-08T12:18:01.627Z,22.1
2023-08-08T12:19:00.491Z,22.1
2023-08-08T12:20:00.521Z,22.2
2023-08-08T12:21:00.495Z,22.2
2023-08-08T12:22:00.498Z,22.2
2023-08-08T12:23:00.537Z,22.3
2023-08-08T12:24:00.499Z,22.4
2023-08-08T12:25:00.512Z,22.6
2023-08-08T12:26:00.500Z,22.8
2023-08-08T12:27:00.743Z,22.9
2023-08-08T12:28:00.489Z,23
2023-08-08T12:29:00.500Z,23.1
2023-08-08T12:30:00.610Z,23.2
2023-08-08T12:31:00.578Z,23.3
2023-08-08T12:32:00.496Z,23.4
2023-08-08T12:33:00.543Z,23.4
2023-08-08T12:34:00.517Z,23.4
2023-08-08T12:35:00.512Z,23.3
2023-08-08T12:36:00.519Z,23.2
2023-08-08T12:37:00.660Z,23.2
2023-08-08T12:38:00.560Z,23.2
2023-08-08T12:39:00.534Z,23.3
2023-08-08T12:40:00.604Z,23.6
2023-08-08T12:41:00.520Z,23.8
2023-08-08T12:42:00.562Z,23.9
2023-08-08T12:43:00.511Z,24.1
2023-08-08T12:44:00.546Z,24.3
2023-08-08T12:45:00.565Z,24.5
2023-08-08T12:46:00.525Z,24.5
2023-08-08T12:47:00.745Z,24.4
2023-08-08T12:48:00.586Z,24.1
2023-08-08T12:49:00.635Z,24.1
2023-08-08T12:50:00.555Z,24.1
2023-08-08T12:51:00.565Z,24.2
2023-08-08T12:52:00.525Z,24.2
2023-08-08T12:53:00.528Z,24.3
2023-08-08T12:54:00.519Z,24.4
2023-08-08T12:55:00.533Z,24.4
2023-08-08T12:56:00.541Z,24.5
2023-08-08T12:57:00.788Z,24.6
2023-08-08T12:58:00.561Z,24.6
2023-08-08T12:59:00.528Z,24.6
2023-08-08T13:00:00.565Z,24.6
2023-08-08T13:01:00.622Z,24.5
2023-08-08T13:02:01.056Z,24.5
2023-08-08T13:03:03.261Z,24.5
2023-08-08T13:04:18.257Z,24.4
2023-08-08T13:05:00.596Z,24.2
2023-08-08T13:06:00.547Z,24.2
2023-08-08T13:07:00.536Z,24.2
2023-08-08T13:08:00.553Z,24.1
2023-08-08T13:09:00.539Z,24.1
2023-08-08T13:10:00.593Z,23.9
2023-08-08T13:11:00.554Z,23.8
2023-08-08T13:12:00.934Z,23.8
2023-08-08T13:13:00.547Z,23.6
2023-08-08T13:14:00.568Z,23.6
2023-08-08T13:15:00.588Z,23.5
2023-08-08T13:16:00.569Z,23.4
2023-08-08T13:17:00.555Z,23.5
2023-08-08T13:18:00.592Z,23.6
2023-08-08T13:19:00.556Z,23.8
2023-08-08T13:20:00.619Z,23.9
2023-08-08T13:21:00.552Z,24.1
2023-08-08T13:22:00.994Z,24.2
2023-08-08T13:23:00.554Z,24.2
2023-08-08T13:24:00.568Z,24.4
2023-08-08T13:25:00.570Z,24.4
2023-08-08T13:26:00.560Z,24.5
2023-08-08T13:27:00.572Z,24.6
2023-08-08T13:28:00.555Z,24.7
2023-08-08T13:29:00.577Z,24.8
2023-08-08T13:30:00.589Z,24.8
2023-08-08T13:31:00.701Z,24.9
2023-08-08T13:32:00.745Z,24.9
2023-08-08T13:33:02.925Z,24.9
2023-08-08T13:34:00.814Z,24.8